createdAt,value
2018-01-16T00:00:03.911Z,7.70
2018-01-16T00:02:31.487Z,7.70
2018-01-16T00:04:59.033Z,7.70
2018-01-16T00:07:26.692Z,7.70
2018-01-16T00:09:54.272Z,7.80
2018-01-16T00:12:21.846Z,7.90
2018-01-16T00:14:49.571Z,7.80
2018-01-16T00:17:17.170Z,7.80
2018-01-16T00:19:44.726Z,7.70
2018-01-16T00:22:12.367Z,7.60
2018-01-16T00:24:40.059Z,7.60
2018-01-16T00:27:07.624Z,7.40
2018-01-16T00:29:35.174Z,7.30
2018-01-16T00:32:03.201Z,7.10
2018-01-16T00:34:30.816Z,7.20
2018-01-16T00:36:58.427Z,7.20
2018-01-16T00:39:26.627Z,7.20
2018-01-16T00:41:54.271Z,7.10
2018-01-16T00:44:21.883Z,7.00
2018-01-16T00:46:49.540Z,7.00
2018-01-16T00:49:17.101Z,6.90
2018-01-16T00:51:44.669Z,6.90
2018-01-16T00:54:12.327Z,6.90
2018-01-16T00:56:39.951Z,6.90
2018-01-16T00:59:08.212Z,7.10
2018-01-16T01:01:35.818Z,7.10
2018-01-16T01:04:03.792Z,7.30
2018-01-16T01:06:31.703Z,7.40
2018-01-16T01:08:59.536Z,7.30
2018-01-16T01:11:27.096Z,7.30
2018-01-16T01:13:54.739Z,7.20
2018-01-16T01:16:22.295Z,7.20
2018-01-16T01:18:49.879Z,7.10
2018-01-16T01:21:17.440Z,7.10
2018-01-16T01:23:45.066Z,7.00
2018-01-16T01:26:12.676Z,6.90
2018-01-16T01:28:40.327Z,6.90
2018-01-16T01:31:07.883Z,6.90
2018-01-16T01:33:35.596Z,6.90
2018-01-16T01:36:03.158Z,6.80
2018-01-16T01:38:30.744Z,6.80
2018-01-16T01:40:58.319Z,6.80
2018-01-16T01:43:25.937Z,6.70
2018-01-16T01:45:53.505Z,6.70
2018-01-16T01:48:21.081Z,6.60
2018-01-16T01:50:48.702Z,6.60
2018-01-16T01:53:16.293Z,6.60
2018-01-16T01:55:43.859Z,6.60
2018-01-16T01:58:11.450Z,6.60
2018-01-16T02:00:39.037Z,6.60
2018-01-16T02:03:06.599Z,6.70
2018-01-16T02:05:34.185Z,6.70
2018-01-16T02:08:01.782Z,6.60
2018-01-16T02:10:29.423Z,6.80
2018-01-16T02:12:56.990Z,6.80
2018-01-16T02:15:24.587Z,6.90
2018-01-16T02:17:52.183Z,6.80
2018-01-16T02:20:19.776Z,6.80
2018-01-16T02:22:47.388Z,6.80
2018-01-16T02:25:14.996Z,6.80
2018-01-16T02:27:42.545Z,6.80
2018-01-16T02:30:10.138Z,6.80
2018-01-16T02:32:37.695Z,6.70
2018-01-16T02:35:05.724Z,6.70
2018-01-16T02:37:33.297Z,6.80
2018-01-16T02:40:00.876Z,6.80
2018-01-16T02:42:28.510Z,6.80
2018-01-16T02:44:56.113Z,6.70
2018-01-16T02:47:24.018Z,6.70
2018-01-16T02:49:51.625Z,6.70
2018-01-16T02:52:19.220Z,6.80
2018-01-16T02:54:46.812Z,6.80
2018-01-16T02:57:14.373Z,6.80
2018-01-16T02:59:41.985Z,6.90
2018-01-16T03:02:09.577Z,6.90
2018-01-16T03:04:37.165Z,6.90
2018-01-16T03:07:04.789Z,7.00
2018-01-16T03:09:32.381Z,7.00
2018-01-16T03:11:59.946Z,7.00
2018-01-16T03:14:27.511Z,6.90
2018-01-16T03:16:55.109Z,6.90
2018-01-16T03:19:22.644Z,7.00
2018-01-16T03:21:50.259Z,7.00
2018-01-16T03:24:17.800Z,7.10
2018-01-16T03:26:45.447Z,7.30
2018-01-16T03:29:13.082Z,7.30
2018-01-16T03:31:40.677Z,7.30
2018-01-16T03:34:08.297Z,7.30
2018-01-16T03:36:35.893Z,7.30
2018-01-16T03:39:03.461Z,7.40
2018-01-16T03:41:31.041Z,7.40
2018-01-16T03:43:58.625Z,7.40
2018-01-16T03:46:26.226Z,7.50
2018-01-16T03:48:53.809Z,7.40
2018-01-16T03:51:21.425Z,7.40
2018-01-16T03:53:48.976Z,7.40
2018-01-16T03:56:16.538Z,7.50
2018-01-16T03:58:44.086Z,7.50
2018-01-16T04:01:11.665Z,7.50
2018-01-16T04:03:39.277Z,7.40
2018-01-16T04:06:06.871Z,7.50
2018-01-16T04:08:34.471Z,7.50
2018-01-16T04:11:02.058Z,7.40
2018-01-16T04:13:29.659Z,7.30
2018-01-16T04:15:57.225Z,7.30
2018-01-16T04:18:24.775Z,7.30
2018-01-16T04:20:52.357Z,7.30
2018-01-16T04:23:19.911Z,7.30
2018-01-16T04:25:47.511Z,7.30
2018-01-16T04:28:15.104Z,7.20
2018-01-16T04:30:42.678Z,7.20
2018-01-16T04:33:10.254Z,7.20
2018-01-16T04:35:37.805Z,7.20
2018-01-16T04:38:05.381Z,7.20
2018-01-16T04:40:32.918Z,7.10
2018-01-16T04:43:00.539Z,7.20
2018-01-16T04:45:28.171Z,7.10
2018-01-16T04:47:55.761Z,7.10
2018-01-16T04:50:23.336Z,7.00
2018-01-16T04:52:50.906Z,7.00
2018-01-16T04:55:18.447Z,7.00
2018-01-16T04:57:46.054Z,7.00
2018-01-16T05:00:13.638Z,7.00
2018-01-16T05:02:41.265Z,7.00
2018-01-16T05:05:08.815Z,7.00
2018-01-16T05:07:36.387Z,7.00
2018-01-16T05:10:03.937Z,7.00
2018-01-16T05:12:31.577Z,6.90
2018-01-16T05:14:59.124Z,6.90
2018-01-16T05:17:26.711Z,6.90
2018-01-16T05:19:54.261Z,6.90
2018-01-16T05:22:21.863Z,6.90
2018-01-16T05:24:49.486Z,7.00
2018-01-16T05:27:17.081Z,7.00
2018-01-16T05:29:44.647Z,7.00
2018-01-16T05:32:12.232Z,7.00
2018-01-16T05:34:39.769Z,7.00
2018-01-16T05:37:07.351Z,7.10
2018-01-16T05:39:34.943Z,7.10
2018-01-16T05:42:02.501Z,7.20
2018-01-16T05:44:30.103Z,7.20
2018-01-16T05:46:57.653Z,7.20
2018-01-16T05:49:25.258Z,7.30
2018-01-16T05:51:52.810Z,7.40
2018-01-16T05:54:20.421Z,7.40
2018-01-16T05:56:47.962Z,7.30
2018-01-16T05:59:15.944Z,7.20
2018-01-16T06:01:43.533Z,7.20
2018-01-16T06:04:12.141Z,7.10
2018-01-16T06:06:39.679Z,7.10
2018-01-16T06:09:07.269Z,7.10
2018-01-16T06:11:34.852Z,7.00
2018-01-16T06:14:03.227Z,7.10
2018-01-16T06:16:30.852Z,7.10
2018-01-16T06:18:58.443Z,7.10
2018-01-16T06:21:26.414Z,7.20
2018-01-16T06:23:53.982Z,7.20
2018-01-16T06:26:21.909Z,7.30
2018-01-16T06:28:49.547Z,7.30
2018-01-16T06:31:17.086Z,7.40
2018-01-16T06:33:44.664Z,7.50
2018-01-16T06:36:12.207Z,7.50
2018-01-16T06:38:39.776Z,7.60
2018-01-16T06:41:07.395Z,7.60
2018-01-16T06:43:35.011Z,7.60
2018-01-16T06:46:02.581Z,7.70
2018-01-16T06:48:30.225Z,7.70
2018-01-16T06:50:57.765Z,7.60
2018-01-16T06:53:25.333Z,7.70
2018-01-16T06:55:52.906Z,7.70
2018-01-16T06:58:20.483Z,7.80
2018-01-16T07:00:48.071Z,7.80
2018-01-16T07:03:16.037Z,7.90
2018-01-16T07:05:43.652Z,7.90
2018-01-16T07:08:11.197Z,7.90
2018-01-16T07:10:38.825Z,7.90
2018-01-16T07:13:06.441Z,8.00
2018-01-16T07:15:34.011Z,8.10
2018-01-16T07:18:01.567Z,8.10
2018-01-16T07:20:29.201Z,8.20
2018-01-16T07:22:56.795Z,8.20
2018-01-16T07:25:24.421Z,8.20
2018-01-16T07:27:52.047Z,8.20
2018-01-16T07:30:19.644Z,8.10
2018-01-16T07:32:47.286Z,8.20
2018-01-16T07:35:14.911Z,8.20
2018-01-16T07:37:42.635Z,8.10
2018-01-16T07:40:10.222Z,8.10
2018-01-16T07:42:40.303Z,8.00
2018-01-16T07:48:00.297Z,8.00
2018-01-16T07:50:27.929Z,7.90
2018-01-16T07:52:56.309Z,7.80
2018-01-16T07:55:23.967Z,7.70
2018-01-16T07:57:52.533Z,7.70
2018-01-16T08:00:20.115Z,7.60
2018-01-16T08:02:47.655Z,7.60
2018-01-16T08:05:15.289Z,7.50
2018-01-16T08:07:42.926Z,7.40
2018-01-16T08:10:10.527Z,7.40
2018-01-16T08:12:38.119Z,7.30
2018-01-16T08:15:05.771Z,7.30
2018-01-16T08:17:33.333Z,7.20
2018-01-16T08:20:00.942Z,7.10
2018-01-16T08:22:28.962Z,7.00
2018-01-16T08:24:56.524Z,7.00
2018-01-16T08:27:24.077Z,7.00
2018-01-16T08:29:51.657Z,6.90
2018-01-16T08:32:19.274Z,6.90
2018-01-16T08:34:46.894Z,6.90
2018-01-16T08:37:14.467Z,6.80
2018-01-16T08:39:42.023Z,6.80
2018-01-16T08:42:09.619Z,6.80
2018-01-16T08:44:37.221Z,6.90
2018-01-16T08:47:04.810Z,7.00
2018-01-16T08:49:32.777Z,7.00
2018-01-16T08:52:00.432Z,7.00
2018-01-16T08:54:28.409Z,7.00
2018-01-16T08:56:56.401Z,7.00
2018-01-16T08:59:23.955Z,7.00
2018-01-16T09:01:51.559Z,7.00
2018-01-16T09:04:19.139Z,7.10
2018-01-16T09:06:47.154Z,7.20
2018-01-16T09:09:14.723Z,7.20
2018-01-16T09:11:42.300Z,7.30
2018-01-16T09:14:09.919Z,7.40
2018-01-16T09:16:37.481Z,7.40
2018-01-16T09:19:05.061Z,7.60
2018-01-16T09:21:32.641Z,7.70
2018-01-16T09:24:00.205Z,7.80
2018-01-16T09:26:27.811Z,7.80
2018-01-16T09:28:55.359Z,7.80
2018-01-16T09:31:22.990Z,7.80
2018-01-16T09:33:50.950Z,7.70
2018-01-16T09:36:18.505Z,7.70
2018-01-16T09:38:46.077Z,7.70
2018-01-16T09:41:13.633Z,7.60
2018-01-16T09:43:41.212Z,7.60
2018-01-16T09:46:08.777Z,7.70
2018-01-16T09:48:36.365Z,7.60
2018-01-16T09:51:03.901Z,7.60
2018-01-16T09:53:31.476Z,7.60
2018-01-16T09:55:59.013Z,7.60
2018-01-16T09:58:26.598Z,7.70
2018-01-16T10:00:54.150Z,7.70
2018-01-16T10:03:21.739Z,7.70
2018-01-16T10:05:49.303Z,7.80
2018-01-16T10:08:16.898Z,7.80
2018-01-16T10:10:44.471Z,7.80
2018-01-16T10:13:12.041Z,7.90
2018-01-16T10:15:39.611Z,7.90
2018-01-16T10:18:07.184Z,8.00
2018-01-16T10:20:34.757Z,8.10
2018-01-16T10:23:02.345Z,8.20
2018-01-16T10:25:29.923Z,8.30
2018-01-16T10:27:57.495Z,8.30
2018-01-16T10:30:25.032Z,8.30
2018-01-16T10:32:52.625Z,8.30
2018-01-16T10:35:20.257Z,8.30
2018-01-16T10:37:47.845Z,8.30
2018-01-16T10:40:15.407Z,8.40
2018-01-16T10:42:42.973Z,8.30
2018-01-16T10:45:10.586Z,8.30
2018-01-16T10:47:38.167Z,8.30
2018-01-16T10:50:05.765Z,8.30
2018-01-16T10:52:33.340Z,8.30
2018-01-16T10:55:01.309Z,8.30
2018-01-16T10:57:28.849Z,8.30
2018-01-16T10:59:56.420Z,8.30
2018-01-16T11:02:24.406Z,8.30
2018-01-16T11:04:52.025Z,8.30
2018-01-16T11:07:19.617Z,8.30
2018-01-16T11:09:47.212Z,8.30
2018-01-16T11:12:14.759Z,8.30
2018-01-16T11:14:42.348Z,8.30
2018-01-16T11:17:09.899Z,8.30
2018-01-16T11:19:37.477Z,8.20
2018-01-16T11:22:05.093Z,8.20
2018-01-16T11:24:32.687Z,8.20
2018-01-16T11:27:00.261Z,8.20
2018-01-16T11:29:27.909Z,8.20
2018-01-16T11:31:55.415Z,8.20
2018-01-16T11:34:22.998Z,8.20
2018-01-16T11:36:50.531Z,8.20
2018-01-16T11:39:18.112Z,8.20
2018-01-16T11:41:45.661Z,8.20
2018-01-16T11:44:13.245Z,8.10
2018-01-16T11:46:40.823Z,7.90
2018-01-16T11:49:08.412Z,7.70
2018-01-16T11:51:35.978Z,7.50
2018-01-16T11:54:03.572Z,7.30
2018-01-16T11:56:31.203Z,6.60
2018-01-16T11:58:58.791Z,6.30
2018-01-16T12:01:26.388Z,6.40
2018-01-16T12:03:53.965Z,6.50
2018-01-16T12:06:21.543Z,6.60
2018-01-16T12:08:49.131Z,6.60
2018-01-16T12:11:16.719Z,6.40
2018-01-16T12:13:44.260Z,6.40
2018-01-16T12:16:11.887Z,6.40
2018-01-16T12:18:39.467Z,6.40
2018-01-16T12:21:07.054Z,6.40
2018-01-16T12:23:34.687Z,6.30
2018-01-16T12:26:02.285Z,6.30
2018-01-16T12:28:29.905Z,6.30
2018-01-16T12:30:57.503Z,6.30
2018-01-16T12:33:25.084Z,6.30
2018-01-16T12:35:52.689Z,6.30
2018-01-16T12:38:20.228Z,6.30
2018-01-16T12:40:47.807Z,6.30
2018-01-16T12:43:15.407Z,6.30
2018-01-16T12:45:46.983Z,6.30
2018-01-16T12:48:15.633Z,6.40
2018-01-16T12:50:43.265Z,6.40
2018-01-16T12:53:10.892Z,6.40
2018-01-16T12:55:38.709Z,6.50
2018-01-16T12:58:06.749Z,6.60
2018-01-16T13:00:34.349Z,6.60
2018-01-16T13:03:01.931Z,6.70
2018-01-16T13:05:29.517Z,6.70
2018-01-16T13:07:57.073Z,6.80
2018-01-16T13:10:24.687Z,6.80
2018-01-16T13:12:52.311Z,6.90
2018-01-16T13:15:20.927Z,7.10
2018-01-16T13:17:48.664Z,7.20
2018-01-16T13:20:16.332Z,7.30
2018-01-16T13:22:44.161Z,7.30
2018-01-16T13:25:11.837Z,7.30
2018-01-16T13:27:39.522Z,7.40
2018-01-16T13:30:07.210Z,7.50
2018-01-16T13:32:52.612Z,7.50
2018-01-16T13:35:20.143Z,7.50
2018-01-16T13:37:54.359Z,7.50
2018-01-16T13:40:25.377Z,7.40
2018-01-16T13:42:52.975Z,7.40
2018-01-16T13:45:20.644Z,7.40
2018-01-16T13:47:50.348Z,7.40
2018-01-16T13:50:18.272Z,7.40
2018-01-16T13:52:47.142Z,7.30
2018-01-16T13:55:14.714Z,7.30
2018-01-16T13:57:42.746Z,7.20
2018-01-16T14:00:10.357Z,7.20
2018-01-16T14:02:38.457Z,7.10
2018-01-16T14:05:06.414Z,7.10
2018-01-16T14:07:35.370Z,7.10
2018-01-16T14:10:03.067Z,7.10
2018-01-16T14:12:31.558Z,7.00
2018-01-16T14:14:59.199Z,7.10
2018-01-16T14:17:26.789Z,7.10
2018-01-16T14:19:54.459Z,7.10
2018-01-16T14:22:23.225Z,7.00
2018-01-16T14:24:50.779Z,7.00
2018-01-16T14:27:18.650Z,7.00
2018-01-16T14:29:46.355Z,7.00
2018-01-16T14:32:14.031Z,7.00
2018-01-16T14:34:41.625Z,7.00
2018-01-16T14:37:19.657Z,6.90
2018-01-16T14:39:54.177Z,6.90
2018-01-16T14:42:21.777Z,6.80
2018-01-16T14:44:49.350Z,6.80
2018-01-16T14:47:29.697Z,6.70
2018-01-16T14:49:57.317Z,6.70
2018-01-16T14:52:24.914Z,6.60
2018-01-16T14:54:52.492Z,6.60
2018-01-16T14:57:20.264Z,6.50
2018-01-16T14:59:51.277Z,6.50
2018-01-16T15:02:18.847Z,6.50
2018-01-16T15:04:46.445Z,6.50
2018-01-16T15:07:13.999Z,6.50
2018-01-16T15:09:41.622Z,6.40
2018-01-16T15:12:09.206Z,6.40
2018-01-16T15:14:36.821Z,6.30
2018-01-16T15:17:04.369Z,6.30
2018-01-16T15:19:32.004Z,6.30
2018-01-16T15:21:59.591Z,6.30
2018-01-16T15:24:27.172Z,6.30
2018-01-16T15:26:54.783Z,6.30
2018-01-16T15:29:22.385Z,6.30
2018-01-16T15:31:49.989Z,6.30
2018-01-16T15:34:17.568Z,6.20
2018-01-16T15:36:45.779Z,6.10
2018-01-16T15:39:13.518Z,6.10
2018-01-16T15:41:41.103Z,6.00
2018-01-16T15:44:08.731Z,6.00
2018-01-16T15:46:36.319Z,6.00
2018-01-16T15:49:03.917Z,6.00
2018-01-16T15:51:31.533Z,5.90
2018-01-16T15:53:59.139Z,6.00
2018-01-16T15:56:26.669Z,6.00
2018-01-16T15:58:54.254Z,6.00
2018-01-16T16:01:21.839Z,6.00
2018-01-16T16:03:49.430Z,6.00
2018-01-16T16:06:17.027Z,6.00
2018-01-16T16:08:44.657Z,6.00
2018-01-16T16:11:12.213Z,6.00
2018-01-16T16:13:39.810Z,5.90
2018-01-16T16:16:07.338Z,6.00
2018-01-16T16:18:34.893Z,6.00
2018-01-16T16:21:02.507Z,6.00
2018-01-16T16:23:30.174Z,6.00
2018-01-16T16:25:58.370Z,6.00
2018-01-16T16:28:25.963Z,6.00
2018-01-16T16:30:53.588Z,6.00
2018-01-16T16:33:21.191Z,6.00
2018-01-16T16:35:48.792Z,6.00
2018-01-16T16:38:16.700Z,6.00
2018-01-16T16:40:44.372Z,6.00
2018-01-16T16:43:11.893Z,6.00
2018-01-16T16:45:39.511Z,6.00
2018-01-16T16:48:17.559Z,6.00
2018-01-16T16:50:46.489Z,6.00
2018-01-16T16:53:14.039Z,6.00
2018-01-16T16:55:41.629Z,6.00
2018-01-16T16:58:09.195Z,6.00
2018-01-16T17:00:36.788Z,6.00
2018-01-16T17:03:04.536Z,6.00
2018-01-16T17:05:32.118Z,6.00
2018-01-16T17:07:59.680Z,6.00
2018-01-16T17:10:27.275Z,6.10
2018-01-16T17:12:54.817Z,6.00
2018-01-16T17:15:22.403Z,6.00
2018-01-16T17:17:49.983Z,6.10
2018-01-16T17:20:17.563Z,6.10
2018-01-16T17:22:45.155Z,6.20
2018-01-16T17:25:13.053Z,6.20
2018-01-16T17:27:40.615Z,6.30
2018-01-16T17:30:08.220Z,6.20
2018-01-16T17:32:35.801Z,6.20
2018-01-16T17:35:03.575Z,6.10
2018-01-16T17:37:31.154Z,6.00
2018-01-16T17:39:58.758Z,6.00
2018-01-16T17:42:26.381Z,5.90
2018-01-16T17:44:54.014Z,5.80
2018-01-16T17:47:21.638Z,5.70
2018-01-16T17:49:49.249Z,5.50
2018-01-16T17:52:16.871Z,5.10
2018-01-16T17:54:44.451Z,4.80
2018-01-16T17:57:12.089Z,4.60
2018-01-16T17:59:39.643Z,4.40
2018-01-16T18:02:07.255Z,4.30
2018-01-16T18:04:34.887Z,4.30
2018-01-16T18:07:02.846Z,4.30
2018-01-16T18:09:30.419Z,4.20
2018-01-16T18:11:58.069Z,4.20
2018-01-16T18:14:25.629Z,4.20
2018-01-16T18:16:53.199Z,4.20
2018-01-16T18:19:21.157Z,4.10
2018-01-16T18:21:48.784Z,4.10
2018-01-16T18:24:18.603Z,4.10
2018-01-16T18:26:46.206Z,4.10
2018-01-16T18:29:13.839Z,4.10
2018-01-16T18:31:41.393Z,4.00
2018-01-16T18:34:08.961Z,4.00
2018-01-16T18:36:36.561Z,4.00
2018-01-16T18:39:04.141Z,4.00
2018-01-16T18:41:31.758Z,4.00
2018-01-16T18:43:59.765Z,3.90
2018-01-16T18:46:27.348Z,4.00
2018-01-16T18:48:54.931Z,3.90
2018-01-16T18:51:22.882Z,3.90
2018-01-16T18:53:50.434Z,3.90
2018-01-16T18:56:18.017Z,3.90
2018-01-16T18:58:45.581Z,3.90
2018-01-16T19:01:13.161Z,3.90
2018-01-16T19:03:40.749Z,3.90
2018-01-16T19:06:08.303Z,3.90
2018-01-16T19:08:35.877Z,3.80
2018-01-16T19:11:03.492Z,3.90
2018-01-16T19:13:31.181Z,3.80
2018-01-16T19:15:58.805Z,3.80
2018-01-16T19:18:26.371Z,3.80
2018-01-16T19:20:53.947Z,3.80
2018-01-16T19:23:21.569Z,3.80
2018-01-16T19:25:49.169Z,3.70
2018-01-16T19:28:16.746Z,3.80
2018-01-16T19:30:44.342Z,3.80
2018-01-16T19:33:11.931Z,3.80
2018-01-16T19:35:39.539Z,3.80
2018-01-16T19:38:07.965Z,3.80
2018-01-16T19:40:35.543Z,3.80
2018-01-16T19:43:03.124Z,3.70
2018-01-16T19:45:30.678Z,3.70
2018-01-16T19:47:58.311Z,3.60
2018-01-16T19:50:25.923Z,3.60
2018-01-16T19:52:53.523Z,3.60
2018-01-16T19:55:21.066Z,3.60
2018-01-16T19:57:48.761Z,3.60
2018-01-16T20:00:16.373Z,3.60
2018-01-16T20:02:43.985Z,3.60
2018-01-16T20:05:11.683Z,3.60
2018-01-16T20:07:40.166Z,3.60
2018-01-16T20:10:07.776Z,3.60
2018-01-16T20:12:35.355Z,3.60
2018-01-16T20:15:02.964Z,3.60
2018-01-16T20:17:30.539Z,3.60
2018-01-16T20:19:58.112Z,3.60
2018-01-16T20:22:25.701Z,3.50
2018-01-16T20:24:53.297Z,3.60
2018-01-16T20:27:20.833Z,3.50
2018-01-16T20:29:48.513Z,3.50
2018-01-16T20:32:16.064Z,3.60
2018-01-16T20:34:43.697Z,3.60
2018-01-16T20:37:11.743Z,3.60
2018-01-16T20:39:39.395Z,3.60
2018-01-16T20:42:06.970Z,3.60
2018-01-16T20:44:34.622Z,3.60
2018-01-16T20:47:02.279Z,3.60
2018-01-16T20:49:29.938Z,3.60
2018-01-16T20:51:57.496Z,3.70
2018-01-16T20:54:25.165Z,3.70
2018-01-16T20:56:52.807Z,3.70
2018-01-16T20:59:20.450Z,3.80
2018-01-16T21:01:48.065Z,3.90
2018-01-16T21:04:15.699Z,3.90
2018-01-16T21:06:43.318Z,3.90
2018-01-16T21:09:11.006Z,3.90
2018-01-16T21:11:39.138Z,3.90
2018-01-16T21:14:06.834Z,3.90
2018-01-16T21:16:34.443Z,3.90
2018-01-16T21:19:01.992Z,3.90
2018-01-16T21:21:29.631Z,3.90
2018-01-16T21:23:57.215Z,4.00
2018-01-16T21:26:24.811Z,4.00
2018-01-16T21:28:52.407Z,4.00
2018-01-16T21:31:20.033Z,3.90
2018-01-16T21:33:47.595Z,4.00
2018-01-16T21:36:15.192Z,4.00
2018-01-16T21:38:42.808Z,4.10
2018-01-16T21:41:10.401Z,4.10
2018-01-16T21:43:37.995Z,4.10
2018-01-16T21:46:05.641Z,4.20
2018-01-16T21:48:33.193Z,4.20
2018-01-16T21:51:00.875Z,4.30
2018-01-16T21:53:28.867Z,4.40
2018-01-16T21:55:56.512Z,4.40
2018-01-16T21:58:24.101Z,4.50
2018-01-16T22:00:51.674Z,4.50
2018-01-16T22:03:19.265Z,4.60
2018-01-16T22:05:46.837Z,4.60
2018-01-16T22:08:14.474Z,4.60
2018-01-16T22:10:42.090Z,4.60
2018-01-16T22:13:09.685Z,4.60
2018-01-16T22:15:37.261Z,4.70
2018-01-16T22:18:04.821Z,4.70
2018-01-16T22:20:32.425Z,4.70
2018-01-16T22:23:00.062Z,4.70
2018-01-16T22:25:27.671Z,4.70
2018-01-16T22:27:55.223Z,4.70
2018-01-16T22:30:22.821Z,4.80
2018-01-16T22:32:50.423Z,4.80
2018-01-16T22:35:17.957Z,4.80
2018-01-16T22:37:45.985Z,4.80
2018-01-16T22:40:13.565Z,4.90
2018-01-16T22:42:41.148Z,4.80
2018-01-16T22:45:08.727Z,4.80
2018-01-16T22:47:36.328Z,4.70
2018-01-16T22:50:03.899Z,4.70
2018-01-16T22:52:31.493Z,4.60
2018-01-16T22:54:59.038Z,4.60
2018-01-16T22:57:27.069Z,4.40
2018-01-16T22:59:54.630Z,4.50
2018-01-16T23:02:22.255Z,4.40
2018-01-16T23:04:49.804Z,4.30
2018-01-16T23:07:17.385Z,4.30
2018-01-16T23:09:44.927Z,4.30
2018-01-16T23:12:12.523Z,4.30
2018-01-16T23:14:40.065Z,4.30
2018-01-16T23:17:07.661Z,4.30
2018-01-16T23:19:35.258Z,4.30
2018-01-16T23:22:02.850Z,4.30
2018-01-16T23:24:30.382Z,4.30
2018-01-16T23:26:57.973Z,4.20
2018-01-16T23:29:25.531Z,4.20
2018-01-16T23:31:53.147Z,4.10
2018-01-16T23:34:20.699Z,4.10
2018-01-16T23:36:48.275Z,4.10
2018-01-16T23:39:16.153Z,4.10
2018-01-16T23:41:43.749Z,4.00
2018-01-16T23:44:11.298Z,4.00
2018-01-16T23:46:38.920Z,4.00
2018-01-16T23:49:06.481Z,4.00
2018-01-16T23:51:34.087Z,3.90
2018-01-16T23:54:01.629Z,3.90
2018-01-16T23:56:29.234Z,3.90
2018-01-16T23:58:56.798Z,3.90
